Challenge Plus — 9VJH7 — position and weather

sailwx.info

Track history (hours):
 
Tides and Currents Weather Stations Pressure Air Temp Water Temp Dewpoint Dewpoint Depression Visibility Wind Speed Wind Dir Waves Ship Positions

Challenge Plus

Last reported at 2014-Aug-06 21:16 UTC. Time now 2014-Sep-03 02:12 UTC.
Position N 36°40' E 123°49'.
Warning: this ship's position is 27 days out of date.

Length 179 m; draft 7.7 m.

Type: Tanker. MMSI: 565267000.

Date/timePositionNaut miles runAvg speedWind from/ knotsBaromVisibWave heightAir tempDewpointWater temp
2014-Aug-06 21:16N 36°40' E 123°49'810.9
2014-Aug-06 20:32N 36°47' E 123°48'1410.8
2014-Aug-06 19:17N 37°01' E 123°48'910.4
2014-Aug-06 18:27N 37°09' E 123°45'910.1
2014-Aug-06 17:33N 37°18' E 123°41'1010.2
2014-Aug-06 16:33N 37°26' E 123°34'1010.4
2014-Aug-06 15:33N 37°35' E 123°26'1110.7
2014-Aug-06 14:30N 37°43' E 123°17'1111.1
2014-Aug-06 13:33N 37°52' E 123°09'1211.7
2014-Aug-06 12:34N 38°01' E 123°00'1313.1
2014-Aug-06 11:33N 38°11' E 122°49'1111.2
2014-Aug-06 10:33N 38°20' E 122°40'1110.9
2014-Aug-06 09:33N 38°28' E 122°32'1110.6
2014-Aug-06 08:33N 38°37' E 122°23'1010.4
2014-Aug-06 07:33N 38°43' E 122°13'1010.4
2014-Aug-06 06:33N 38°48' E 122°01'1010.0
2014-Aug-06 05:32N 38°56' E 121°52'1 0.0
2014-Aug-04 22:27N 38°56' E 121°52'7 2.6
2014-Aug-04 19:31N 38°56' E 122°01'0 0.0
2014-Aug-04 14:22N 38°56' E 122°02'0 0.1
2014-Aug-04 11:33N 38°56' E 122°01'6 5.1
2014-Aug-04 10:22N 38°55' E 121°54'1 0.2
2014-Aug-04 04:23N 38°56' E 121°52'2 2.4
2014-Aug-04 03:31N 38°55' E 121°55'6 0.2
2014-Aug-02 17:05N 38°56' E 122°02'0 0.1
2014-Aug-02 16:14N 38°56' E 122°02'0 0.0
2014-Aug-01 22:29N 38°56' E 122°02'0 0.0
2014-Aug-01 18:26N 38°56' E 122°02'103 2.1
2014-Jul-30 18:05N 37°36' E 123°24'911.0
2014-Jul-30 17:15N 37°29' E 123°31'1911.1
2014-Jul-30 15:33N 37°13' E 123°45'2711.6
2014-Jul-30 13:13N 36°47' E 123°54'19711.1
2014-Jul-29 19:30N 33°48' E 125°36'1311.1
2014-Jul-29 18:19N 33°45' E 125°52'  
Track history (hours):
 
Tides and Currents Weather Stations Pressure Air Temp Water Temp Dewpoint Dewpoint Depression Visibility Wind Speed Wind Dir Waves Ship Positions

Challenge Plus

Last reported at 2014-Aug-06 21:16 UTC. Time now 2014-Sep-03 02:12 UTC.
Position N 36°40' E 123°49'.
Warning: this ship's position is 27 days out of date.

Length 179 m; draft 7.7 m.

Type: Tanker. MMSI: 565267000.

Date/timePositionNaut miles runAvg speedWind from/ knotsBaromVisibWave heightAir tempDewpointWater temp
2014-Aug-06 21:16N 36°40' E 123°49'810.9
2014-Aug-06 20:32N 36°47' E 123°48'1410.8
2014-Aug-06 19:17N 37°01' E 123°48'910.4
2014-Aug-06 18:27N 37°09' E 123°45'910.1
2014-Aug-06 17:33N 37°18' E 123°41'1010.2
2014-Aug-06 16:33N 37°26' E 123°34'1010.4
2014-Aug-06 15:33N 37°35' E 123°26'1110.7
2014-Aug-06 14:30N 37°43' E 123°17'1111.1
2014-Aug-06 13:33N 37°52' E 123°09'1211.7
2014-Aug-06 12:34N 38°01' E 123°00'1313.1
2014-Aug-06 11:33N 38°11' E 122°49'1111.2
2014-Aug-06 10:33N 38°20' E 122°40'1110.9
2014-Aug-06 09:33N 38°28' E 122°32'1110.6
2014-Aug-06 08:33N 38°37' E 122°23'1010.4
2014-Aug-06 07:33N 38°43' E 122°13'1010.4
2014-Aug-06 06:33N 38°48' E 122°01'1010.0
2014-Aug-06 05:32N 38°56' E 121°52'1 0.0
2014-Aug-04 22:27N 38°56' E 121°52'7 2.6
2014-Aug-04 19:31N 38°56' E 122°01'0 0.0
2014-Aug-04 14:22N 38°56' E 122°02'0 0.1
2014-Aug-04 11:33N 38°56' E 122°01'6 5.1
2014-Aug-04 10:22N 38°55' E 121°54'1 0.2
2014-Aug-04 04:23N 38°56' E 121°52'2 2.4
2014-Aug-04 03:31N 38°55' E 121°55'6 0.2
2014-Aug-02 17:05N 38°56' E 122°02'0 0.1
2014-Aug-02 16:14N 38°56' E 122°02'0 0.0
2014-Aug-01 22:29N 38°56' E 122°02'0 0.0
2014-Aug-01 18:26N 38°56' E 122°02'103 2.1
2014-Jul-30 18:05N 37°36' E 123°24'911.0
2014-Jul-30 17:15N 37°29' E 123°31'1911.1
2014-Jul-30 15:33N 37°13' E 123°45'2711.6
2014-Jul-30 13:13N 36°47' E 123°54'19711.1
2014-Jul-29 19:30N 33°48' E 125°36'1311.1
2014-Jul-29 18:19N 33°45' E 125°52'  

Dump ship's entire track history